sim
Sign-in with your pilot id or email,
or register
Callsign
Passwort

Schedule Details

Flight Number: EWG2682 (3)
Departure: Stuttgart Airport (EDDS) at 11:30
Arrival: Thessaloniki International Airport (LGTS) at 13:50
Route: Eurowings Passenger Schedule. Enter filed route here before submitting Pirep.

Weather Information
Getting current METAR information for EDDS 192220Z 32003KT CAVOK 11/02 Q1027
Getting current METAR information for LGTS 192220Z 14004KT 9999 FEW020 13/09 Q1023 NOSIG

Schedule Frequency

Route Map